Chazy, New York
Current Conditions -  °F | °C
As of 6:53 AM on Sunday 23 Nov 2014 (Local Time) from KPBG Reporting Station
Overcast Overcast  
Wind Chill: 35°   Ceiling: 2900
Heat Index: 39°   Visibility: 10mi
Dew Point: 36°   Wind: 6mph
Humidity: 89%   Direction: 170°S
Pressure: 30.01"   Gusts: NA
Location:  44.89°N, 73.44°W
Report Text: KPBG 231153Z AUTO 17005KT 10SM BKN029 OVC034 04/02 A3001 RMK AO2 RAB08E22 SLP165 P0000 60000 T00390022 10039 20028 53020
Loading
Personal Weather Stations






























Interactive Weather Map New forecast layout! Learn more

10-Day Weather Forecast

Advertisements
Track Severe Weather on mobile